Bensenville, Illinois
Current Conditions -  °F | °C
As of 9:51 AM on Friday 31 Oct 2014 (Local Time) from KORD Reporting Station
Broken Clouds Broken Clouds  
Wind Chill: -2°   Ceiling: 3400
Heat Index:   Visibility: 10mi
Dew Point: -2°   Wind: 26mph
Humidity: 65%   Direction: 340°NNW
Pressure: 30.12"   Gusts: 35mph
Location:  41.96°N, 87.94°W
Report Text: KORD 311451Z 34023G30KT 10SM FEW028 BKN034 BKN046 BKN140 04/M02 A3012 RMK AO2 PK WND 34037/1413 SLP204 60002 T00391022 51014
Loading
Personal Weather Stations






























Interactive Weather Map
Tropical Storm Tracking
New forecast layout! Learn more

10-Day Weather Forecast

Advertisements
Track Severe Weather on mobile